createdAt,value
2018-12-01T00:00:43.616Z,5.53
2018-12-01T00:03:12.766Z,1.20
2018-12-01T00:05:41.915Z,1.50
2018-12-01T00:08:11.066Z,1.13
2018-12-01T00:10:40.134Z,2.07
2018-12-01T00:13:09.247Z,1.33
2018-12-01T00:15:38.304Z,2.13
2018-12-01T00:18:07.897Z,2.13
2018-12-01T00:20:38.272Z,2.17
2018-12-01T00:23:08.520Z,1.00
2018-12-01T00:25:37.723Z,1.43
2018-12-01T00:28:06.912Z,2.27
2018-12-01T00:30:36.070Z,1.27
2018-12-01T00:33:05.270Z,0.80
2018-12-01T00:35:34.783Z,1.70
2018-12-01T00:38:03.971Z,1.50
2018-12-01T00:40:33.186Z,1.10
2018-12-01T00:43:02.490Z,1.60
2018-12-01T00:45:31.805Z,0.77
2018-12-01T00:48:00.890Z,0.83
2018-12-01T00:50:30.659Z,0.83
2018-12-01T00:52:59.692Z,0.83
2018-12-01T00:55:28.844Z,0.70
2018-12-01T00:57:58.018Z,0.73
2018-12-01T01:00:27.954Z,1.10
2018-12-01T01:02:59.207Z,0.70
2018-12-01T01:05:30.084Z,0.90
2018-12-01T01:08:01.311Z,1.13
2018-12-01T01:10:32.555Z,1.30
2018-12-01T01:13:01.628Z,0.70
2018-12-01T01:15:30.740Z,0.57
2018-12-01T01:17:59.866Z,1.20
2018-12-01T01:20:30.251Z,1.33
2018-12-01T01:22:59.451Z,1.03
2018-12-01T01:25:29.395Z,0.90
2018-12-01T01:27:58.504Z,1.67
2018-12-01T01:30:27.862Z,0.80
2018-12-01T01:33:07.746Z,0.77
2018-12-01T01:35:36.880Z,0.87
2018-12-01T01:38:06.120Z,1.00
2018-12-01T01:40:35.197Z,2.43
2018-12-01T01:43:04.316Z,1.30
2018-12-01T01:45:33.487Z,1.00
2018-12-01T01:48:02.612Z,0.90
2018-12-01T01:50:32.317Z,1.00
2018-12-01T01:53:01.490Z,1.07
2018-12-01T01:55:30.669Z,1.27
2018-12-01T01:57:59.809Z,1.20
2018-12-01T02:00:29.026Z,1.30
2018-12-01T02:02:58.089Z,1.83
2018-12-01T02:05:27.283Z,0.87
2018-12-01T02:07:56.398Z,1.27
2018-12-01T02:10:25.571Z,1.30
2018-12-01T02:12:54.867Z,1.03
2018-12-01T02:15:24.092Z,0.80
2018-12-01T02:17:53.263Z,0.40
2018-12-01T02:20:22.381Z,0.80
2018-12-01T02:22:51.806Z,0.90
2018-12-01T02:25:20.914Z,0.73
2018-12-01T02:27:50.033Z,1.07
2018-12-01T02:30:20.885Z,0.90
2018-12-01T02:32:50.304Z,0.80
2018-12-01T02:35:26.598Z,0.97
2018-12-01T02:37:55.776Z,0.90
2018-12-01T02:40:24.858Z,0.93
2018-12-01T02:42:54.020Z,0.67
2018-12-01T02:45:33.972Z,0.60
2018-12-01T02:48:03.200Z,0.63
2018-12-01T02:50:32.403Z,0.63
2018-12-01T02:53:02.831Z,0.87
2018-12-01T02:55:31.863Z,1.17
2018-12-01T02:58:01.039Z,1.00
2018-12-01T03:00:30.116Z,1.00
2018-12-01T03:02:59.310Z,0.53
2018-12-01T03:05:29.102Z,1.13
2018-12-01T03:07:58.242Z,0.50
2018-12-01T03:10:27.451Z,0.70
2018-12-01T03:12:56.715Z,0.77
2018-12-01T03:15:25.816Z,1.00
2018-12-01T03:17:54.986Z,0.70
2018-12-01T03:20:24.031Z,0.70
2018-12-01T03:22:53.181Z,1.00
2018-12-01T03:25:23.240Z,0.73
2018-12-01T03:27:53.261Z,0.90
2018-12-01T03:30:23.499Z,1.03
2018-12-01T03:32:53.524Z,0.67
2018-12-01T03:35:23.512Z,0.67
2018-12-01T03:37:52.844Z,0.90
2018-12-01T03:40:23.335Z,1.20
2018-12-01T03:42:53.668Z,0.57
2018-12-01T03:45:23.691Z,0.83
2018-12-01T03:47:52.965Z,0.80
2018-12-01T03:50:24.235Z,0.80
2018-12-01T03:52:57.268Z,0.70
2018-12-01T03:55:33.403Z,0.77
2018-12-01T03:58:03.407Z,0.60
2018-12-01T04:00:34.405Z,0.50
2018-12-01T04:03:10.478Z,1.07
2018-12-01T04:05:40.426Z,0.70
2018-12-01T04:08:09.485Z,0.50
2018-12-01T04:10:38.591Z,0.87
2018-12-01T04:13:07.801Z,0.70
2018-12-01T04:15:36.951Z,0.47
2018-12-01T04:18:06.224Z,0.60
2018-12-01T04:20:35.362Z,0.53
2018-12-01T04:23:04.673Z,0.60
2018-12-01T04:25:33.787Z,0.70
2018-12-01T04:28:02.986Z,0.43
2018-12-01T04:30:32.063Z,1.40
2018-12-01T04:33:01.171Z,0.50
2018-12-01T04:35:31.212Z,0.73
2018-12-01T04:38:01.089Z,0.83
2018-12-01T04:40:30.370Z,0.20
2018-12-01T04:42:59.518Z,0.47
2018-12-01T04:45:28.655Z,0.60
2018-12-01T04:47:57.975Z,0.50
2018-12-01T04:50:27.500Z,0.50
2018-12-01T04:52:56.688Z,0.60
2018-12-01T04:55:25.878Z,0.47
2018-12-01T04:57:54.924Z,0.40
2018-12-01T05:00:23.986Z,0.40
2018-12-01T05:02:53.063Z,0.40
2018-12-01T05:05:22.707Z,0.33
2018-12-01T05:07:51.924Z,0.40
2018-12-01T05:10:22.835Z,0.37
2018-12-01T05:12:52.079Z,0.80
2018-12-01T05:15:21.261Z,0.40
2018-12-01T05:17:50.372Z,0.30
2018-12-01T05:20:26.458Z,0.70
2018-12-01T05:22:55.560Z,0.20
2018-12-01T05:25:25.574Z,0.27
2018-12-01T05:27:54.696Z,0.20
2018-12-01T05:30:23.891Z,0.30
2018-12-01T05:32:53.014Z,0.30
2018-12-01T05:35:23.206Z,0.20
2018-12-01T05:37:52.392Z,0.20
2018-12-01T05:40:21.790Z,0.30
2018-12-01T05:42:50.808Z,0.13
2018-12-01T05:45:21.615Z,0.10
2018-12-01T05:47:50.953Z,0.30
2018-12-01T05:50:28.300Z,0.10
2018-12-01T05:52:57.934Z,0.00
2018-12-01T05:55:27.620Z,0.10
2018-12-01T05:57:57.153Z,0.17
2018-12-01T06:00:26.398Z,0.20
2018-12-01T06:02:55.401Z,0.10
2018-12-01T06:05:25.435Z,0.00
2018-12-01T06:07:54.560Z,0.10
2018-12-01T06:10:23.964Z,0.00
2018-12-01T06:12:54.058Z,0.10
2018-12-01T06:15:23.395Z,0.10
2018-12-01T06:17:52.452Z,0.00
2018-12-01T06:20:22.678Z,0.00
2018-12-01T06:22:51.859Z,0.10
2018-12-01T06:25:22.331Z,0.10
2018-12-01T06:27:51.396Z,0.10
2018-12-01T06:30:21.030Z,0.00
2018-12-01T06:32:51.297Z,0.00
2018-12-01T06:35:20.400Z,0.00
2018-12-01T06:37:49.581Z,0.00
2018-12-01T06:40:19.457Z,0.00
2018-12-01T06:42:48.681Z,0.00
2018-12-01T06:45:22.161Z,0.00
2018-12-01T06:47:51.234Z,0.00
2018-12-01T06:50:21.831Z,0.00
2018-12-01T06:52:51.521Z,0.10
2018-12-01T06:55:21.140Z,0.00
2018-12-01T06:57:51.164Z,0.00
2018-12-01T07:00:21.469Z,0.00
2018-12-01T07:02:50.847Z,0.00
2018-12-01T07:05:20.189Z,0.00
2018-12-01T07:07:49.237Z,0.10
2018-12-01T07:10:19.518Z,0.00
2018-12-01T07:12:53.891Z,0.00
2018-12-01T07:15:25.746Z,0.00
2018-12-01T07:17:54.842Z,0.07
2018-12-01T07:20:24.004Z,0.00
2018-12-01T07:22:53.098Z,0.00
2018-12-01T07:25:22.227Z,0.90
2018-12-01T07:27:51.323Z,0.40
2018-12-01T07:30:20.387Z,0.10
2018-12-01T07:32:49.414Z,0.10
2018-12-01T07:35:18.967Z,0.10
2018-12-01T07:37:48.083Z,0.20
2018-12-01T07:40:18.366Z,0.30
2018-12-01T07:42:47.421Z,0.30
2018-12-01T07:45:16.941Z,0.10
2018-12-01T07:47:46.001Z,0.03
2018-12-01T07:50:17.797Z,0.10
2018-12-01T07:52:53.958Z,0.00
2018-12-01T07:55:24.626Z,0.20
2018-12-01T07:57:55.279Z,0.20
2018-12-01T08:00:24.323Z,0.47
2018-12-01T08:02:53.396Z,0.20
2018-12-01T08:05:22.578Z,1.80
2018-12-01T08:07:51.728Z,0.33
2018-12-01T08:10:24.360Z,0.67
2018-12-01T08:12:57.150Z,0.20
2018-12-01T08:15:28.123Z,0.20
2018-12-01T08:17:57.303Z,0.00
2018-12-01T08:20:27.197Z,2.67
2018-12-01T08:22:56.299Z,2.00
2018-12-01T08:25:25.394Z,0.70
2018-12-01T08:27:56.849Z,0.93
2018-12-01T08:30:31.165Z,0.50
2018-12-01T08:33:00.218Z,0.90
2018-12-01T08:35:30.435Z,1.23
2018-12-01T08:37:59.636Z,1.10
2018-12-01T08:40:29.927Z,0.83
2018-12-01T08:42:59.124Z,0.80
2018-12-01T08:45:28.483Z,1.17
2018-12-01T08:47:57.474Z,0.70
2018-12-01T08:50:30.133Z,1.30
2018-12-01T08:52:59.426Z,1.37
2018-12-01T08:55:28.465Z,1.27
2018-12-01T08:57:58.045Z,1.40
2018-12-01T09:00:28.785Z,1.63
2018-12-01T09:03:00.587Z,2.03
2018-12-01T09:05:29.915Z,2.17
2018-12-01T09:07:59.131Z,2.70
2018-12-01T09:10:28.481Z,2.27
2018-12-01T09:13:01.546Z,3.60
2018-12-01T09:15:27.196Z,9.13
2018-12-01T09:17:56.334Z,2.77
2018-12-01T09:20:25.776Z,2.27
2018-12-01T09:22:55.571Z,2.03
2018-12-01T09:25:33.503Z,2.10
2018-12-01T09:28:04.183Z,2.83
2018-12-01T09:30:36.222Z,2.60
2018-12-01T09:33:05.688Z,1.47
2018-12-01T09:35:46.768Z,2.80
2018-12-01T09:38:15.962Z,1.50
2018-12-01T09:40:45.674Z,1.80
2018-12-01T09:43:16.302Z,2.03
2018-12-01T09:45:45.517Z,2.13
2018-12-01T09:48:14.963Z,1.83
2018-12-01T09:50:45.018Z,2.57
2018-12-01T09:53:14.129Z,1.20
2018-12-01T09:55:43.433Z,1.90
2018-12-01T09:58:12.614Z,2.10
2018-12-01T10:00:42.359Z,2.13
2018-12-01T10:03:12.426Z,2.63
2018-12-01T10:05:41.579Z,2.40
2018-12-01T10:08:12.684Z,1.70
2018-12-01T10:10:41.797Z,1.60
2018-12-01T10:13:12.156Z,1.73
2018-12-01T10:15:41.590Z,2.70
2018-12-01T10:18:11.079Z,2.60
2018-12-01T10:20:40.362Z,4.67
2018-12-01T10:23:16.964Z,3.07
2018-12-01T10:25:46.367Z,1.83
2018-12-01T10:28:16.826Z,1.90
2018-12-01T10:30:46.220Z,2.43
2018-12-01T10:33:15.525Z,1.73
2018-12-01T10:35:44.634Z,1.80
2018-12-01T10:38:15.539Z,1.60
2018-12-01T10:40:44.893Z,1.13
2018-12-01T10:43:15.066Z,0.97
2018-12-01T10:45:45.073Z,2.77
2018-12-01T10:48:14.447Z,1.77
2018-12-01T10:50:43.862Z,2.60
2018-12-01T10:53:13.894Z,2.33
2018-12-01T10:55:43.051Z,2.80
2018-12-01T10:58:19.993Z,2.40
2018-12-01T11:00:56.336Z,1.20
2018-12-01T11:03:33.141Z,1.90
2018-12-01T11:06:04.028Z,2.30
2018-12-01T11:08:33.433Z,1.87
2018-12-01T11:11:02.654Z,1.33
2018-12-01T11:13:32.821Z,0.83
2018-12-01T11:16:02.952Z,1.23
2018-12-01T11:18:32.754Z,0.97
2018-12-01T11:21:02.295Z,1.33
2018-12-01T11:23:31.667Z,1.23
2018-12-01T11:26:00.929Z,1.60
2018-12-01T11:28:30.369Z,1.77
2018-12-01T11:31:00.488Z,1.77
2018-12-01T11:33:30.051Z,1.83
2018-12-01T11:36:03.592Z,1.60
2018-12-01T11:38:35.564Z,2.30
2018-12-01T11:41:04.928Z,1.67
2018-12-01T11:43:34.162Z,1.97
2018-12-01T11:46:03.477Z,1.80
2018-12-01T11:48:40.436Z,2.27
2018-12-01T11:51:11.575Z,2.30
2018-12-01T11:53:43.306Z,2.50
2018-12-01T11:56:12.840Z,2.77
2018-12-01T11:58:42.118Z,2.13
2018-12-01T12:01:11.920Z,1.37
2018-12-01T12:03:41.193Z,1.77
2018-12-01T12:06:13.998Z,1.47
2018-12-01T12:08:43.306Z,3.27
2018-12-01T12:11:15.003Z,1.83
2018-12-01T12:13:44.913Z,2.77
2018-12-01T12:16:14.197Z,2.03
2018-12-01T12:18:43.811Z,1.13
2018-12-01T12:21:13.288Z,2.37
2018-12-01T12:23:42.798Z,1.43
2018-12-01T12:26:12.414Z,1.23
2018-12-01T12:28:41.724Z,1.27
2018-12-01T12:31:11.034Z,0.80
2018-12-01T12:33:40.202Z,1.23
2018-12-01T12:36:09.630Z,2.47
2018-12-01T12:38:41.886Z,2.17
2018-12-01T12:41:11.370Z,4.77
2018-12-01T12:43:41.531Z,3.23
2018-12-01T12:46:11.505Z,4.37
2018-12-01T12:48:40.715Z,6.57
2018-12-01T12:51:11.601Z,7.03
2018-12-01T12:53:43.145Z,4.47
2018-12-01T12:56:14.192Z,4.40
2018-12-01T12:58:45.195Z,2.80
2018-12-01T13:01:15.034Z,2.80
2018-12-01T13:03:44.123Z,2.97
2018-12-01T13:06:13.371Z,4.10
2018-12-01T13:08:42.600Z,4.07
2018-12-01T13:11:12.929Z,4.10
2018-12-01T13:13:43.916Z,2.10
2018-12-01T13:16:13.323Z,4.60
2018-12-01T13:18:43.519Z,5.17
2018-12-01T13:21:13.557Z,4.10
2018-12-01T13:23:42.654Z,3.73
2018-12-01T13:26:12.966Z,3.70
2018-12-01T13:28:42.622Z,3.23
2018-12-01T13:31:11.876Z,4.60
2018-12-01T13:33:41.296Z,4.03
2018-12-01T13:36:11.484Z,6.57
2018-12-01T13:38:41.584Z,5.10
2018-12-01T13:41:12.338Z,7.17
2018-12-01T13:43:41.921Z,4.53
2018-12-01T13:46:13.167Z,6.23
2018-12-01T13:48:42.351Z,6.70
2018-12-01T13:51:11.881Z,4.60
2018-12-01T13:53:41.234Z,4.53
2018-12-01T13:56:10.751Z,3.60
2018-12-01T13:58:40.055Z,5.00
2018-12-01T14:01:09.418Z,4.17
2018-12-01T14:03:42.620Z,5.07
2018-12-01T14:06:13.545Z,6.47
2018-12-01T14:08:43.821Z,6.30
2018-12-01T14:11:13.154Z,3.77
2018-12-01T14:13:42.456Z,2.90
2018-12-01T14:16:11.866Z,2.80
2018-12-01T14:18:41.232Z,4.67
2018-12-01T14:21:12.931Z,7.47
2018-12-01T14:23:42.487Z,5.47
2018-12-01T14:26:11.790Z,3.33
2018-12-01T14:28:41.243Z,3.23
2018-12-01T14:31:12.573Z,4.13
2018-12-01T14:33:42.562Z,3.87
2018-12-01T14:36:11.846Z,4.23
2018-12-01T14:38:43.203Z,3.40
2018-12-01T14:41:12.396Z,2.40
2018-12-01T14:43:41.613Z,4.13
2018-12-01T14:46:11.417Z,2.90
2018-12-01T14:48:41.462Z,3.53
2018-12-01T14:51:10.728Z,4.40
2018-12-01T14:56:43.834Z,3.90
2018-12-01T14:59:14.554Z,3.23
2018-12-01T15:01:44.386Z,2.80
2018-12-01T15:04:14.852Z,13.03
2018-12-01T15:06:45.115Z,3.80
2018-12-01T15:09:15.152Z,3.63
2018-12-01T15:11:44.860Z,3.53
2018-12-01T15:14:14.157Z,5.57
2018-12-01T15:16:43.497Z,3.70
2018-12-01T15:19:13.431Z,7.67
2018-12-01T15:21:42.823Z,4.53
2018-12-01T15:24:12.077Z,4.37
2018-12-01T15:26:41.461Z,4.63
2018-12-01T15:29:10.856Z,4.13
2018-12-01T15:31:40.173Z,4.10
2018-12-01T15:34:09.586Z,4.27
2018-12-01T15:36:43.500Z,4.03
2018-12-01T15:39:13.753Z,5.07
2018-12-01T15:41:44.056Z,4.67
2018-12-01T15:44:13.902Z,4.57
2018-12-01T15:46:44.579Z,3.70
2018-12-01T15:49:13.892Z,4.80
2018-12-01T15:51:45.060Z,4.93
2018-12-01T15:54:15.548Z,6.17
2018-12-01T15:56:44.958Z,10.30
2018-12-01T15:59:14.386Z,5.87
2018-12-01T16:01:44.137Z,6.07
2018-12-01T16:04:13.583Z,5.27
2018-12-01T16:06:43.025Z,6.37
2018-12-01T16:09:12.867Z,7.33
2018-12-01T16:11:42.501Z,6.67
2018-12-01T16:14:12.655Z,7.87
2018-12-01T16:16:43.257Z,7.87
2018-12-01T16:19:12.650Z,7.73
2018-12-01T16:21:42.335Z,6.80
2018-12-01T16:24:12.977Z,7.47
2018-12-01T16:26:42.218Z,7.63
2018-12-01T16:29:15.263Z,5.30
2018-12-01T16:31:44.816Z,5.97
2018-12-01T16:34:14.041Z,6.00
2018-12-01T16:36:43.279Z,7.30
2018-12-01T16:39:14.040Z,6.53
2018-12-01T16:41:43.555Z,6.97
2018-12-01T16:44:15.001Z,6.80
2018-12-01T16:46:45.378Z,9.73
2018-12-01T16:49:15.396Z,6.80
2018-12-01T16:51:44.725Z,7.73
2018-12-01T16:54:14.052Z,6.40
2018-12-01T16:56:43.804Z,7.13
2018-12-01T16:59:13.097Z,6.47
2018-12-01T17:01:43.814Z,5.63
2018-12-01T17:04:13.291Z,6.80
2018-12-01T17:06:42.641Z,9.13
2018-12-01T17:09:11.885Z,10.93
2018-12-01T17:11:41.339Z,8.67
2018-12-01T17:14:11.612Z,8.20
2018-12-01T17:16:40.928Z,6.77
2018-12-01T17:19:12.330Z,6.43
2018-12-01T17:21:41.443Z,6.70
2018-12-01T17:24:11.375Z,23.03
2018-12-01T17:26:40.558Z,9.10
2018-12-01T17:32:04.515Z,8.10
2018-12-01T17:34:34.526Z,6.57
2018-12-01T17:37:04.960Z,6.83
2018-12-01T17:39:34.245Z,8.20
2018-12-01T17:42:07.595Z,5.77
2018-12-01T17:44:39.971Z,6.80
2018-12-01T17:47:13.568Z,5.50
2018-12-01T17:49:43.995Z,5.70
2018-12-01T17:52:12.343Z,6.90
2018-12-01T17:54:41.439Z,5.67
2018-12-01T17:57:10.675Z,6.70
2018-12-01T17:59:39.862Z,8.20
2018-12-01T18:02:09.008Z,6.53
2018-12-01T18:04:38.130Z,8.27
2018-12-01T18:07:07.818Z,6.70
2018-12-01T18:09:38.172Z,8.03
2018-12-01T18:12:07.979Z,5.97
2018-12-01T18:14:37.159Z,8.00
2018-12-01T18:17:06.727Z,11.23
2018-12-01T18:19:37.392Z,7.63
2018-12-01T18:22:06.948Z,7.77
2018-12-01T18:24:36.209Z,6.57
2018-12-01T18:27:06.472Z,8.27
2018-12-01T18:29:35.723Z,6.80
2018-12-01T18:32:05.576Z,5.93
2018-12-01T18:34:35.210Z,7.37
2018-12-01T18:37:06.451Z,9.03
2018-12-01T18:39:35.647Z,8.37
2018-12-01T18:42:05.082Z,6.33
2018-12-01T18:44:34.431Z,6.07
2018-12-01T18:47:03.635Z,9.87
2018-12-01T18:49:32.783Z,7.73
2018-12-01T18:52:02.248Z,6.73
2018-12-01T18:54:31.609Z,8.07
2018-12-01T18:57:02.017Z,7.63
2018-12-01T18:59:30.250Z,7.30
2018-12-01T19:02:00.128Z,6.47
2018-12-01T19:04:31.255Z,6.43
2018-12-01T19:07:00.363Z,9.03
2018-12-01T19:09:29.570Z,5.73
2018-12-01T19:11:58.828Z,4.23
2018-12-01T19:14:29.228Z,9.73
2018-12-01T19:16:59.193Z,4.77
2018-12-01T19:19:30.203Z,16.10
2018-12-01T19:21:59.341Z,4.37
2018-12-01T19:24:28.779Z,5.13
2018-12-01T19:26:58.118Z,3.23
2018-12-01T19:29:29.066Z,4.50
2018-12-01T19:31:58.234Z,4.67
2018-12-01T19:34:27.520Z,5.40
2018-12-01T19:36:56.652Z,4.10
2018-12-01T19:39:25.844Z,4.47
2018-12-01T19:41:54.995Z,4.93
2018-12-01T19:44:24.380Z,4.10
2018-12-01T19:46:53.698Z,3.23
2018-12-01T19:49:22.995Z,4.77
2018-12-01T19:51:52.073Z,6.40
2018-12-01T19:54:21.377Z,5.80
2018-12-01T19:56:50.583Z,4.70
2018-12-01T19:59:19.700Z,4.80
2018-12-01T20:01:50.411Z,5.97
2018-12-01T20:04:19.612Z,6.83
2018-12-01T20:06:53.271Z,5.97
2018-12-01T20:09:22.447Z,4.60
2018-12-01T20:11:51.967Z,4.00
2018-12-01T20:14:22.381Z,5.93
2018-12-01T20:16:54.302Z,4.27
2018-12-01T20:19:23.594Z,4.93
2018-12-01T20:21:52.872Z,3.90
2018-12-01T20:24:23.944Z,6.10
2018-12-01T20:26:53.115Z,4.83
2018-12-01T20:29:22.472Z,6.23
2018-12-01T20:31:51.572Z,3.73
2018-12-01T20:34:20.860Z,4.63
2018-12-01T20:36:55.432Z,4.10
2018-12-01T20:39:26.316Z,3.20
2018-12-01T20:41:55.424Z,4.70
2018-12-01T20:44:24.516Z,4.60
2018-12-01T20:46:54.423Z,3.53
2018-12-01T20:49:25.059Z,4.87
2018-12-01T20:51:54.260Z,4.80
2018-12-01T20:54:35.739Z,4.47
2018-12-01T20:57:10.593Z,4.17
2018-12-01T20:59:39.763Z,3.33
2018-12-01T21:02:08.971Z,3.93
2018-12-01T21:04:38.238Z,4.10
2018-12-01T21:07:11.460Z,3.20
2018-12-01T21:09:40.865Z,3.47
2018-12-01T21:12:11.085Z,3.53
2018-12-01T21:14:42.009Z,2.73
2018-12-01T21:17:11.229Z,1.90
2018-12-01T21:19:40.839Z,2.00
2018-12-01T21:22:12.061Z,1.53
2018-12-01T21:24:43.573Z,2.27
2018-12-01T21:27:13.722Z,1.70
2018-12-01T21:29:44.077Z,1.73
2018-12-01T21:32:13.265Z,2.67
2018-12-01T21:34:43.170Z,2.03
2018-12-01T21:37:13.671Z,0.70
2018-12-01T21:39:44.359Z,1.10
2018-12-01T21:42:13.543Z,0.60
2018-12-01T21:44:42.733Z,0.90
2018-12-01T21:47:12.059Z,1.00
2018-12-01T21:49:41.260Z,0.90
2018-12-01T21:52:10.440Z,1.40
2018-12-01T21:54:40.477Z,1.27
2018-12-01T21:57:09.874Z,1.50
2018-12-01T21:59:39.248Z,0.97
2018-12-01T22:02:08.915Z,1.37
2018-12-01T22:04:38.127Z,1.67
2018-12-01T22:07:07.354Z,5.43
2018-12-01T22:09:36.745Z,1.20
2018-12-01T22:12:05.994Z,1.10
2018-12-01T22:14:35.833Z,1.10
2018-12-01T22:17:05.099Z,1.20
2018-12-01T22:19:34.370Z,1.03
2018-12-01T22:22:03.694Z,0.90
2018-12-01T22:24:33.436Z,1.70
2018-12-01T22:27:02.703Z,1.40
2018-12-01T22:29:32.358Z,2.60
2018-12-01T22:32:01.837Z,1.30
2018-12-01T22:34:32.328Z,1.50
2018-12-01T22:37:02.367Z,1.97
2018-12-01T22:39:31.640Z,2.43
2018-12-01T22:42:00.905Z,1.60
2018-12-01T22:44:31.984Z,2.83
2018-12-01T22:47:01.275Z,2.00
2018-12-01T22:49:30.689Z,2.30
2018-12-01T22:52:01.638Z,3.27
2018-12-01T22:54:31.132Z,4.50
2018-12-01T22:57:00.332Z,3.37
2018-12-01T22:59:30.703Z,2.97
2018-12-01T23:01:59.945Z,3.73
2018-12-01T23:04:29.150Z,4.40
2018-12-01T23:06:58.479Z,2.77
2018-12-01T23:09:30.618Z,3.50
2018-12-01T23:12:00.886Z,3.63
2018-12-01T23:14:30.245Z,4.13
2018-12-01T23:16:59.608Z,2.47
2018-12-01T23:19:28.839Z,2.50
2018-12-01T23:21:58.315Z,3.13
2018-12-01T23:24:28.704Z,2.63
2018-12-01T23:26:57.973Z,1.63
2018-12-01T23:29:27.178Z,1.30
2018-12-01T23:31:56.378Z,1.90
2018-12-01T23:34:25.678Z,1.37
2018-12-01T23:36:55.726Z,2.30
2018-12-01T23:39:25.523Z,1.43
2018-12-01T23:41:54.847Z,1.47
2018-12-01T23:44:29.621Z,1.70
2018-12-01T23:46:58.879Z,1.40
2018-12-01T23:49:28.121Z,1.43
2018-12-01T23:51:57.520Z,1.50
2018-12-01T23:54:26.609Z,3.20
2018-12-01T23:56:55.762Z,2.77
2018-12-01T23:59:25.015Z,1.57
